createdAt,value
2023-10-22T11:50:04.308Z,1004.11
2023-10-22T11:50:22.939Z,1004.12
2023-10-22T11:50:32.321Z,1004.11
2023-10-22T11:50:41.695Z,1004.08
2023-10-22T11:50:51.337Z,1004.10
2023-10-22T11:51:00.574Z,1004.14
2023-10-22T11:51:09.930Z,1004.15
2023-10-22T11:51:28.661Z,1004.08
2023-10-22T11:51:38.036Z,1004.15
2023-10-22T11:51:47.462Z,1004.21
2023-10-22T11:51:56.966Z,1004.14
2023-10-22T11:55:32.052Z,1004.10
2023-10-22T11:55:36.166Z,1004.19
2023-10-22T11:55:38.751Z,1004.14
2023-10-22T11:55:52.816Z,1004.18
2023-10-22T11:56:02.276Z,1004.15
2023-10-22T11:56:11.701Z,1004.20
2023-10-22T11:56:21.121Z,1004.20
2023-10-22T11:56:30.541Z,1004.17
2023-10-22T11:56:58.810Z,1004.14
2023-10-22T11:57:08.237Z,1004.13
2023-10-22T11:57:17.652Z,1004.12
2023-10-22T11:57:27.134Z,1004.19
2023-10-22T11:57:36.462Z,1004.07
2023-10-22T11:57:45.896Z,1004.13
2023-10-22T11:58:04.817Z,1004.18
2023-10-22T11:58:14.166Z,1004.14
2023-10-22T11:58:23.567Z,1004.18
2023-10-22T11:58:32.959Z,1004.20
2023-10-22T11:58:42.364Z,1004.13
2023-10-22T11:58:51.767Z,1004.13
2023-10-22T11:59:10.622Z,1004.17
2023-10-22T12:14:00.860Z,1004.30
2023-10-22T12:14:10.371Z,1004.19
2023-10-22T12:23:50.232Z,1004.17
2023-10-22T12:23:56.034Z,1004.10
2023-10-22T12:24:16.368Z,1004.17
2023-10-22T12:24:25.988Z,1004.12
2023-10-22T12:24:33.808Z,1004.14
2023-10-22T12:24:43.463Z,1004.11
2023-10-22T12:24:52.621Z,1004.19
2023-10-22T12:25:02.167Z,1004.14
2023-10-22T12:25:11.473Z,1004.22
2023-10-22T12:25:20.887Z,1004.18
2023-10-22T12:25:39.693Z,1004.28
2023-10-22T12:25:49.173Z,1004.19
2023-10-22T12:25:58.580Z,1004.19
2023-10-22T12:26:07.984Z,1004.22
2023-10-22T12:26:17.504Z,1004.19
2023-10-22T12:26:26.918Z,1004.20
2023-10-22T12:26:45.706Z,1004.26
2023-10-22T12:26:55.176Z,1004.19
2023-10-22T12:27:04.623Z,1004.27
2023-10-22T12:59:54.720Z,1004.22
2023-10-22T13:10:54.722Z,1004.39
2023-10-22T13:11:04.128Z,1004.51
2023-10-22T13:11:13.548Z,1004.47
2023-10-22T13:11:22.989Z,1004.51
2023-10-22T13:11:32.415Z,1004.47
2023-10-22T13:11:51.249Z,1004.46
2023-10-22T13:12:00.713Z,1004.54
2023-10-22T13:12:10.066Z,1004.50
2023-10-22T13:12:19.536Z,1004.47
2023-10-22T13:12:28.939Z,1004.46
2023-10-22T13:12:38.325Z,1004.49
2023-10-22T13:13:09.518Z,1004.47
2023-10-22T13:13:10.847Z,1004.58
2023-10-22T13:13:15.993Z,1004.58
2023-10-22T13:13:25.397Z,1004.50
2023-10-22T13:13:34.807Z,1004.54
2023-10-22T13:13:44.201Z,1004.56
2023-10-22T13:14:03.073Z,1004.54
2023-10-22T13:14:12.494Z,1004.58
2023-10-22T13:14:21.945Z,1004.59
2023-10-22T13:14:31.296Z,1004.58
2023-10-22T13:14:40.751Z,1004.52
2023-10-22T13:14:51.386Z,1004.57
2023-10-22T13:15:09.004Z,1004.58
2023-10-22T13:15:18.481Z,1004.68
2023-10-22T13:15:27.873Z,1004.61
2023-10-22T13:15:37.418Z,1004.61
2023-10-22T13:15:46.919Z,1004.67
2023-10-22T13:15:56.215Z,1004.56
2023-10-22T13:16:15.197Z,1004.57
2023-10-22T13:16:24.628Z,1004.64
2023-10-22T13:16:34.077Z,1004.64
2023-10-22T13:16:43.476Z,1004.65
2023-10-22T13:16:52.872Z,1004.59
2023-10-22T13:17:02.305Z,1004.55
2023-10-22T13:17:21.129Z,1004.57
2023-10-22T13:17:30.547Z,1004.60
2023-10-22T13:17:39.984Z,1004.61
2023-10-22T13:17:49.399Z,1004.57
2023-10-22T13:17:58.937Z,1004.69
2023-10-22T13:18:08.424Z,1004.62
2023-10-22T13:18:27.266Z,1004.63
2023-10-22T13:18:36.594Z,1004.67
2023-10-22T13:18:46.014Z,1004.59
2023-10-22T13:18:55.453Z,1004.61
2023-10-22T13:19:04.849Z,1004.60
2023-10-22T13:19:14.307Z,1004.65
2023-10-22T13:19:33.322Z,1004.56
2023-10-22T13:19:42.731Z,1004.61
2023-10-22T13:19:52.163Z,1004.64
2023-10-22T13:20:01.607Z,1004.70
2023-10-22T13:20:11.086Z,1004.53
2023-10-22T13:20:20.576Z,1004.59
2023-10-22T13:20:39.659Z,1004.60
2023-10-22T13:20:51.193Z,1004.58
2023-10-22T13:20:58.605Z,1004.60
2023-10-22T13:21:10.724Z,1004.63
2023-10-22T13:21:20.178Z,1004.64
2023-10-22T13:21:29.545Z,1004.63
2023-10-22T13:21:48.458Z,1004.61
2023-10-22T13:21:57.763Z,1004.60
2023-10-22T13:22:07.173Z,1004.60
2023-10-22T13:22:16.565Z,1004.59
2023-10-22T13:22:25.971Z,1004.63
2023-10-22T13:22:35.461Z,1004.65
2023-10-22T13:22:54.289Z,1004.58
2023-10-22T13:23:03.709Z,1004.59
2023-10-22T13:23:13.179Z,1004.59
2023-10-22T13:23:22.622Z,1004.61
2023-10-22T13:23:32.049Z,1004.66
2023-10-22T13:23:41.442Z,1004.61
2023-10-22T13:24:00.386Z,1004.71
2023-10-22T13:24:09.719Z,1004.67
2023-10-22T13:24:19.138Z,1004.65
2023-10-22T13:24:28.547Z,1004.66
2023-10-22T13:24:38.224Z,1004.65
2023-10-22T13:24:47.402Z,1004.61
2023-10-22T13:25:06.389Z,1004.64
2023-10-22T13:25:15.818Z,1004.60
2023-10-22T13:25:25.388Z,1004.63
2023-10-22T13:25:34.788Z,1004.65
2023-10-22T13:25:44.245Z,1004.63
2023-10-22T13:25:53.661Z,1004.62
2023-10-22T13:26:12.473Z,1004.72
2023-10-22T13:26:21.895Z,1004.69
2023-10-22T13:26:31.317Z,1004.66
2023-10-22T13:26:40.728Z,1004.65
2023-10-22T13:26:50.135Z,1004.68
2023-10-22T13:26:59.581Z,1004.69
2023-10-22T13:27:18.405Z,1004.66
2023-10-22T13:27:27.814Z,1004.70
2023-10-22T13:27:37.251Z,1004.74
2023-10-22T13:27:46.612Z,1004.75
2023-10-22T13:27:56.043Z,1004.72
2023-10-22T13:28:05.458Z,1004.68
2023-10-22T13:28:24.269Z,1004.68
2023-10-22T13:28:33.771Z,1004.70
2023-10-22T13:28:43.208Z,1004.74
2023-10-22T13:28:52.657Z,1004.66
2023-10-22T13:29:02.063Z,1004.73
2023-10-22T13:29:11.490Z,1004.73
2023-10-22T13:29:30.376Z,1004.69
2023-10-22T13:29:39.799Z,1004.68
2023-10-22T13:29:49.180Z,1004.66
2023-10-22T13:29:58.647Z,1004.60
2023-10-22T13:30:08.076Z,1004.62
2023-10-22T13:30:17.591Z,1004.64
2023-10-22T13:30:36.381Z,1004.68
2023-10-22T13:30:45.810Z,1004.66
2023-10-22T13:30:55.333Z,1004.67
2023-10-22T13:31:04.760Z,1004.70
2023-10-22T13:31:14.158Z,1004.69
2023-10-22T13:31:23.644Z,1004.70
2023-10-22T13:31:42.535Z,1004.69
2023-10-22T13:31:52.158Z,1004.72
2023-10-22T13:32:01.571Z,1004.69
2023-10-22T13:32:10.990Z,1004.65
2023-10-22T13:32:20.377Z,1004.69
2023-10-22T13:32:31.016Z,1004.65
2023-10-22T13:32:50.071Z,1004.67
2023-10-22T13:32:59.587Z,1004.72
2023-10-22T13:33:09.003Z,1004.62
2023-10-22T13:33:18.382Z,1004.66
2023-10-22T13:33:27.805Z,1004.67
2023-10-22T13:33:37.189Z,1004.63
2023-10-22T13:33:56.043Z,1004.69
2023-10-22T13:34:05.554Z,1004.66
2023-10-22T13:34:14.844Z,1004.68
2023-10-22T13:34:24.257Z,1004.66
2023-10-22T13:34:33.656Z,1004.62
2023-10-22T13:34:43.203Z,1004.72
2023-10-22T13:35:02.087Z,1004.65
2023-10-22T13:35:11.526Z,1004.66
2023-10-22T13:35:20.975Z,1004.61
2023-10-22T13:35:33.099Z,1004.67
2023-10-22T13:35:42.514Z,1004.69
2023-10-22T13:35:51.925Z,1004.73
2023-10-22T13:36:10.823Z,1004.68
2023-10-22T13:36:20.206Z,1004.69
2023-10-22T13:36:29.691Z,1004.61
2023-10-22T13:36:39.022Z,1004.69
2023-10-22T13:36:48.395Z,1004.65
2023-10-22T13:36:57.811Z,1004.66
2023-10-22T13:37:16.640Z,1004.62
2023-10-22T13:37:26.109Z,1004.74
2023-10-22T13:37:35.581Z,1004.68
2023-10-22T13:37:45.001Z,1004.78
2023-10-22T13:37:54.404Z,1004.68
2023-10-22T13:38:03.837Z,1004.73
2023-10-22T13:38:22.694Z,1004.76
2023-10-22T13:38:32.100Z,1004.72
2023-10-22T13:38:41.538Z,1004.75
2023-10-22T13:38:51.056Z,1004.70
2023-10-22T13:39:00.649Z,1004.72
2023-10-22T13:39:09.970Z,1004.79
2023-10-22T13:39:28.721Z,1004.70
2023-10-22T13:39:38.174Z,1004.75
2023-10-22T13:39:47.630Z,1004.69
2023-10-22T13:39:57.068Z,1004.69
2023-10-22T13:40:06.435Z,1004.63
2023-10-22T13:40:15.896Z,1004.72
2023-10-22T13:40:34.693Z,1004.67
2023-10-22T13:40:44.125Z,1004.69
2023-10-22T13:40:53.528Z,1004.76
2023-10-22T13:41:02.939Z,1004.77
2023-10-22T13:41:12.377Z,1004.74
2023-10-22T13:41:21.806Z,1004.70
2023-10-22T13:41:40.605Z,1004.69
2023-10-22T13:41:50.036Z,1004.67
2023-10-22T13:41:59.468Z,1004.65
2023-10-22T13:42:08.880Z,1004.77
2023-10-22T13:42:18.360Z,1004.75
2023-10-22T13:42:27.776Z,1004.72
2023-10-22T13:42:46.624Z,1004.72
2023-10-22T13:42:56.081Z,1004.76
2023-10-22T13:43:05.519Z,1004.73
2023-10-22T13:43:14.972Z,1004.69
2023-10-22T13:44:02.052Z,1004.68
2023-10-22T13:44:11.481Z,1004.74
2023-10-22T13:44:20.887Z,1004.75
2023-10-22T13:44:30.301Z,1004.80
2023-10-22T13:44:39.768Z,1004.73
2023-10-22T13:45:27.743Z,1004.67
2023-10-22T14:37:35.812Z,1004.70
2023-10-22T14:37:55.088Z,1005.27
2023-10-22T14:38:04.502Z,1005.23
2023-10-22T14:38:13.904Z,1005.24
2023-10-22T14:38:23.317Z,1005.30
2023-10-22T14:38:32.699Z,1005.30
2023-10-22T14:38:42.096Z,1005.29
2023-10-22T14:39:00.885Z,1005.29
2023-10-22T14:39:10.277Z,1005.30
2023-10-22T14:39:19.686Z,1005.23
2023-10-22T14:39:29.100Z,1005.28
2023-10-22T14:39:38.515Z,1005.33
2023-10-22T14:39:47.858Z,1005.30
2023-10-22T14:40:06.645Z,1005.32
2023-10-22T14:40:16.067Z,1005.26
2023-10-22T14:40:27.698Z,1005.23
2023-10-22T14:40:34.861Z,1005.30
2023-10-22T14:40:44.241Z,1005.29
2023-10-22T14:40:53.681Z,1005.35
2023-10-22T14:41:12.458Z,1005.27
2023-10-22T14:41:21.852Z,1005.22
2023-10-22T14:41:31.275Z,1005.21
2023-10-22T14:41:40.692Z,1005.32
2023-10-22T14:41:50.074Z,1005.23
2023-10-22T14:41:59.480Z,1005.30
2023-10-22T14:42:18.286Z,1005.33
2023-10-22T14:42:27.720Z,1005.23
2023-10-22T14:42:37.062Z,1005.28
2023-10-22T14:42:46.388Z,1005.24
2023-10-22T14:42:55.779Z,1005.34
2023-10-22T14:43:05.175Z,1005.28
2023-10-22T14:43:23.958Z,1005.32
2023-10-22T14:43:33.335Z,1005.35
2023-10-22T14:43:42.722Z,1005.29
2023-10-22T14:43:52.120Z,1005.31
2023-10-22T14:44:01.503Z,1005.36
2023-10-22T14:44:10.907Z,1005.35
2023-10-22T14:44:29.718Z,1005.32
2023-10-22T14:44:39.250Z,1005.33
2023-10-22T14:44:48.517Z,1005.34
2023-10-22T14:44:57.942Z,1005.31
2023-10-22T14:45:07.333Z,1005.36
2023-10-22T14:45:16.757Z,1005.34
2023-10-22T14:45:35.571Z,1005.32
2023-10-22T14:45:45.013Z,1005.31
2023-10-22T14:45:54.475Z,1005.38
2023-10-22T14:46:03.941Z,1005.35
2023-10-22T14:46:13.311Z,1005.36
2023-10-22T14:46:22.778Z,1005.32
2023-10-22T14:46:42.613Z,1005.28
2023-10-22T14:46:50.924Z,1005.35
2023-10-22T14:47:00.437Z,1005.33
2023-10-22T14:47:09.880Z,1005.36
2023-10-22T14:47:19.266Z,1005.32
2023-10-22T14:47:29.696Z,1005.33
2023-10-22T14:47:48.513Z,1005.34
2023-10-22T14:47:57.975Z,1005.33
2023-10-22T14:48:07.361Z,1005.34
2023-10-22T14:48:16.761Z,1005.34
2023-10-22T14:48:26.189Z,1005.38
2023-10-22T14:48:35.559Z,1005.35
2023-10-22T14:48:54.394Z,1005.36
2023-10-22T14:49:03.825Z,1005.40
2023-10-22T14:49:13.166Z,1005.42
2023-10-22T14:49:22.547Z,1005.34
2023-10-22T14:49:31.934Z,1005.35
2023-10-22T14:49:41.319Z,1005.39
2023-10-22T14:50:00.143Z,1005.42
2023-10-22T14:50:09.503Z,1005.32
2023-10-22T14:50:18.913Z,1005.37
2023-10-22T14:50:28.277Z,1005.38
2023-10-22T14:50:37.686Z,1005.45
2023-10-22T14:50:47.073Z,1005.38
2023-10-22T14:51:05.875Z,1005.31
2023-10-22T14:51:15.289Z,1005.38
2023-10-22T14:51:24.637Z,1005.39
2023-10-22T14:51:34.057Z,1005.35
2023-10-22T14:51:43.397Z,1005.40
2023-10-22T14:51:52.790Z,1005.41
2023-10-22T14:52:11.562Z,1005.36
2023-10-22T14:52:20.954Z,1005.39
2023-10-22T14:52:30.344Z,1005.39
2023-10-22T14:52:39.758Z,1005.43
2023-10-22T14:52:49.162Z,1005.40
2023-10-22T14:52:58.558Z,1005.46
2023-10-22T14:53:17.337Z,1005.43
2023-10-22T14:53:26.736Z,1005.40
2023-10-22T14:53:36.134Z,1005.34
2023-10-22T14:53:45.525Z,1005.46
2023-10-22T14:53:54.922Z,1005.42
2023-10-22T14:54:04.326Z,1005.41
2023-10-22T14:54:23.256Z,1005.42
2023-10-22T14:54:32.608Z,1005.42
2023-10-22T14:54:41.992Z,1005.39
2023-10-22T14:54:51.350Z,1005.39
2023-10-22T14:55:00.768Z,1005.43
2023-10-22T14:55:10.108Z,1005.49
2023-10-22T14:55:28.898Z,1005.42
2023-10-22T14:55:38.300Z,1005.45
2023-10-22T14:55:47.815Z,1005.43
2023-10-22T14:55:57.086Z,1005.47
2023-10-22T14:56:06.474Z,1005.40
2023-10-22T14:56:15.864Z,1005.43
2023-10-22T14:56:34.710Z,1005.42
2023-10-22T14:56:44.111Z,1005.47
2023-10-22T14:56:53.514Z,1005.48
2023-10-22T14:57:02.921Z,1005.45
2023-10-22T14:57:12.346Z,1005.49
2023-10-22T14:57:21.758Z,1005.43
2023-10-22T14:57:40.527Z,1005.40
2023-10-22T14:57:49.841Z,1005.42
2023-10-22T14:57:59.239Z,1005.42
2023-10-22T14:58:08.627Z,1005.41
2023-10-22T14:58:18.031Z,1005.44
2023-10-22T14:58:27.441Z,1005.43
2023-10-22T14:58:46.240Z,1005.46
2023-10-22T14:58:55.655Z,1005.43
2023-10-22T14:59:05.040Z,1005.46
2023-10-22T14:59:14.766Z,1005.47
2023-10-22T14:59:23.831Z,1005.46
2023-10-22T14:59:33.214Z,1005.43
2023-10-22T14:59:52.072Z,1005.53
2023-10-22T15:00:01.806Z,1005.51
2023-10-22T15:00:11.015Z,1005.56
2023-10-22T15:00:20.444Z,1005.44
2023-10-22T15:00:29.819Z,1005.45
2023-10-22T15:00:39.219Z,1005.39
2023-10-22T15:00:57.977Z,1005.45
2023-10-22T15:01:07.421Z,1005.52
2023-10-22T15:01:16.839Z,1005.48
2023-10-22T15:01:26.260Z,1005.47
2023-10-22T15:01:35.663Z,1005.49
2023-10-22T15:01:45.029Z,1005.57
2023-10-22T15:02:03.794Z,1005.48
2023-10-22T15:02:13.183Z,1005.48
2023-10-22T15:02:22.564Z,1005.58
2023-10-22T15:02:31.975Z,1005.59
2023-10-22T15:02:41.475Z,1005.46
2023-10-22T15:02:50.839Z,1005.53
2023-10-22T15:03:09.677Z,1005.55
2023-10-22T15:03:19.102Z,1005.50
2023-10-22T15:03:28.566Z,1005.58
2023-10-22T15:03:38.064Z,1005.60
2023-10-22T15:03:47.342Z,1005.57
2023-10-22T15:03:56.845Z,1005.55
2023-10-22T15:04:15.631Z,1005.54
2023-10-22T15:04:24.907Z,1005.58
2023-10-22T15:04:34.335Z,1005.54
2023-10-22T15:04:43.910Z,1005.51
2023-10-22T15:04:53.416Z,1005.55
2023-10-22T15:05:02.951Z,1005.55
2023-10-22T15:05:21.317Z,1005.57
2023-10-22T15:05:30.737Z,1005.54
2023-10-22T15:52:52.372Z,1005.62
2023-10-22T15:53:01.780Z,1006.43
2023-10-22T15:53:11.173Z,1006.43
2023-10-22T16:26:43.385Z,1006.37
2023-10-22T16:27:02.250Z,1006.58
2023-10-22T16:27:11.594Z,1006.51
2023-10-22T16:27:21.020Z,1006.55
2023-10-22T17:59:07.985Z,1006.54
2023-10-22T17:59:17.450Z,1007.56
2023-10-22T17:59:26.846Z,1007.56
2023-10-22T17:59:36.246Z,1007.53
2023-10-22T17:59:45.645Z,1007.53
2023-10-22T18:00:42.205Z,1007.57
2023-10-22T18:00:51.602Z,1007.55
2023-10-22T18:01:10.536Z,1007.58
2023-10-22T18:01:38.528Z,1007.54
2023-10-22T18:01:47.942Z,1007.58
2023-10-22T18:01:57.292Z,1007.60
2023-10-22T18:02:16.080Z,1007.63
2023-10-22T18:02:25.485Z,1007.56
2023-10-22T18:02:34.896Z,1007.60
2023-10-22T18:02:44.302Z,1007.58
2023-10-22T18:02:53.759Z,1007.61
2023-10-22T18:03:03.155Z,1007.68
2023-10-22T18:03:22.011Z,1007.60
2023-10-22T18:03:31.436Z,1007.62
2023-10-22T18:03:40.896Z,1007.60
2023-10-22T18:03:50.261Z,1007.63
2023-10-22T18:03:59.511Z,1007.63
2023-10-22T18:04:08.884Z,1007.62
2023-10-22T18:04:27.669Z,1007.60
2023-10-22T18:04:37.154Z,1007.63
2023-10-22T18:04:46.500Z,1007.60
2023-10-22T18:04:55.800Z,1007.60
2023-10-22T18:05:05.196Z,1007.62
2023-10-22T18:05:14.625Z,1007.66
2023-10-22T18:05:33.427Z,1007.67
2023-10-22T18:05:42.831Z,1007.61
2023-10-22T18:05:52.242Z,1007.64
2023-10-22T18:06:01.637Z,1007.57
2023-10-22T18:06:11.061Z,1007.65
2023-10-22T18:06:20.487Z,1007.58
2023-10-22T18:06:39.263Z,1007.68
2023-10-22T18:06:48.668Z,1007.67
2023-10-22T18:06:58.045Z,1007.58
2023-10-22T18:07:07.621Z,1007.63
2023-10-22T18:07:17.015Z,1007.59
2023-10-22T18:07:26.411Z,1007.55
2023-10-22T18:07:45.461Z,1007.65
2023-10-22T18:07:54.905Z,1007.66
2023-10-22T18:08:04.299Z,1007.62
2023-10-22T18:08:13.701Z,1007.60
2023-10-22T18:08:23.126Z,1007.61
2023-10-22T18:08:32.535Z,1007.64
2023-10-22T18:08:51.351Z,1007.62
2023-10-22T18:09:00.760Z,1007.66
2023-10-22T18:09:10.239Z,1007.56
2023-10-22T18:09:19.682Z,1007.69
2023-10-22T18:09:29.089Z,1007.66
2023-10-22T18:09:38.517Z,1007.65
2023-10-22T18:09:57.290Z,1007.71
2023-10-22T18:10:06.740Z,1007.69
2023-10-22T18:10:16.131Z,1007.71
2023-10-22T18:10:25.559Z,1007.63
2023-10-22T18:10:34.941Z,1007.68
2023-10-22T18:10:44.372Z,1007.71
2023-10-22T18:11:03.172Z,1007.73
2023-10-22T18:11:12.562Z,1007.68
2023-10-22T18:11:24.688Z,1007.69
2023-10-22T18:11:31.885Z,1007.68
2023-10-22T18:11:41.280Z,1007.77
2023-10-22T18:11:50.664Z,1007.66
2023-10-22T18:12:09.480Z,1007.72
2023-10-22T18:12:18.900Z,1007.74
2023-10-22T18:12:28.376Z,1007.65
2023-10-22T18:12:37.737Z,1007.63
2023-10-22T18:12:47.087Z,1007.68
2023-10-22T18:12:56.495Z,1007.66
2023-10-22T18:13:15.283Z,1007.67
2023-10-22T18:13:24.669Z,1007.62
2023-10-22T18:13:34.116Z,1007.71
2023-10-22T18:13:43.483Z,1007.65
2023-10-22T18:13:52.913Z,1007.72
2023-10-22T18:14:02.288Z,1007.68
2023-10-22T18:14:21.099Z,1007.74
2023-10-22T18:14:30.469Z,1007.70
2023-10-22T18:14:40.143Z,1007.73
2023-10-22T18:14:49.303Z,1007.68
2023-10-22T18:14:58.698Z,1007.68
2023-10-22T18:15:08.176Z,1007.69
2023-10-22T18:15:27.099Z,1007.71
2023-10-22T18:15:36.426Z,1007.74
2023-10-22T18:15:45.863Z,1007.71
2023-10-22T18:15:55.209Z,1007.73
2023-10-22T18:16:04.648Z,1007.69
2023-10-22T18:16:14.092Z,1007.64
2023-10-22T18:16:32.844Z,1007.74
2023-10-22T18:16:42.271Z,1007.66
2023-10-22T18:16:51.644Z,1007.67
2023-10-22T18:17:00.998Z,1007.68
2023-10-22T18:17:10.355Z,1007.64
2023-10-22T18:17:19.737Z,1007.62
2023-10-22T18:17:38.534Z,1007.72
2023-10-22T18:17:47.928Z,1007.63
2023-10-22T18:17:57.281Z,1007.65
2023-10-22T18:18:06.821Z,1007.65
2023-10-22T18:18:16.132Z,1007.67
2023-10-22T18:18:25.614Z,1007.69
2023-10-22T18:18:44.398Z,1007.68
2023-10-22T18:18:54.358Z,1007.67
2023-10-22T18:19:08.056Z,1007.65
2023-10-22T18:19:16.225Z,1007.74
2023-10-22T18:19:35.224Z,1007.67
2023-10-22T18:19:40.623Z,1007.71
2023-10-22T18:19:52.379Z,1007.67
2023-10-22T18:20:02.036Z,1007.68
2023-10-22T18:20:18.361Z,1007.69
2023-10-22T18:20:32.859Z,1007.64
2023-10-22T18:20:33.508Z,1007.70
2023-10-22T18:20:37.892Z,1007.64
2023-10-22T18:20:56.704Z,1007.61
2023-10-22T18:21:06.157Z,1007.68
2023-10-22T18:21:15.543Z,1007.65
2023-10-22T18:21:24.958Z,1007.63
2023-10-22T18:21:34.294Z,1007.65
2023-10-22T18:21:43.679Z,1007.63
2023-10-22T18:22:02.475Z,1007.66
2023-10-22T18:22:11.876Z,1007.63
2023-10-22T18:22:21.349Z,1007.61
2023-10-22T18:22:30.773Z,1007.62
2023-10-22T18:22:40.157Z,1007.61
2023-10-22T18:22:49.562Z,1007.71
2023-10-22T18:23:08.379Z,1007.64
2023-10-22T18:23:17.781Z,1007.67
2023-10-22T18:23:27.146Z,1007.65
2023-10-22T18:23:36.532Z,1007.68
2023-10-22T18:23:45.923Z,1007.67
2023-10-22T18:23:55.323Z,1007.65
2023-10-22T18:24:14.235Z,1007.65
2023-10-22T18:24:23.608Z,1007.70
2023-10-22T18:24:33.020Z,1007.68
2023-10-22T18:24:42.490Z,1007.69
2023-10-22T18:24:51.824Z,1007.63
2023-10-22T18:25:01.183Z,1007.67
2023-10-22T18:25:20.127Z,1007.71
2023-10-22T18:25:29.530Z,1007.69
2023-10-22T18:25:38.904Z,1007.66
2023-10-22T18:25:48.299Z,1007.71
2023-10-22T18:25:57.755Z,1007.73
2023-10-22T18:26:07.131Z,1007.67
2023-10-22T18:26:25.959Z,1007.65
2023-10-22T18:26:35.339Z,1007.67
2023-10-22T18:26:45.097Z,1007.66
2023-10-22T18:26:54.114Z,1007.68
2023-10-22T18:27:03.576Z,1007.61
2023-10-22T18:27:12.983Z,1007.68
2023-10-22T18:27:31.908Z,1007.72
2023-10-22T18:27:41.290Z,1007.70
2023-10-22T18:27:50.593Z,1007.71
2023-10-22T18:27:59.969Z,1007.68
2023-10-22T18:28:09.417Z,1007.67
2023-10-22T18:28:18.801Z,1007.72
2023-10-22T18:28:37.587Z,1007.67
2023-10-22T18:28:46.961Z,1007.69
2023-10-22T18:28:56.352Z,1007.65
2023-10-22T18:29:05.735Z,1007.63
2023-10-22T18:29:15.118Z,1007.73
2023-10-22T18:29:24.511Z,1007.72
2023-10-22T18:29:43.309Z,1007.69
2023-10-22T18:29:52.702Z,1007.69
2023-10-22T18:30:02.091Z,1007.69
2023-10-22T18:30:11.509Z,1007.70
2023-10-22T18:30:20.897Z,1007.73
2023-10-22T18:30:30.251Z,1007.65
2023-10-22T18:30:49.256Z,1007.71
2023-10-22T18:30:58.449Z,1007.74
2023-10-22T18:31:07.938Z,1007.69
2023-10-22T18:31:17.292Z,1007.66
2023-10-22T18:31:26.764Z,1007.70
2023-10-22T18:31:36.093Z,1007.73
2023-10-22T18:31:57.564Z,1007.72
2023-10-22T18:32:04.261Z,1007.72
2023-10-22T18:32:13.736Z,1007.81
2023-10-22T18:32:23.122Z,1007.69
2023-10-22T18:32:32.688Z,1007.75
2023-10-22T18:32:42.029Z,1007.73
2023-10-22T18:33:00.832Z,1007.78
2023-10-22T18:33:10.391Z,1007.74
2023-10-22T18:33:19.644Z,1007.75
2023-10-22T18:33:29.076Z,1007.72
2023-10-22T18:33:38.564Z,1007.76
2023-10-22T18:33:47.857Z,1007.71
2023-10-22T18:34:06.589Z,1007.63
2023-10-22T18:34:16.091Z,1007.74
2023-10-22T18:34:25.502Z,1007.67
2023-10-22T18:34:34.854Z,1007.78
2023-10-22T18:34:44.257Z,1007.71
2023-10-22T18:34:53.661Z,1007.72
2023-10-22T18:35:12.518Z,1007.74
2023-10-22T18:35:21.915Z,1007.79
2023-10-22T18:35:31.312Z,1007.72
2023-10-22T18:35:40.706Z,1007.74
2023-10-22T18:35:50.083Z,1007.72
2023-10-22T18:35:59.445Z,1007.73
2023-10-22T18:36:18.272Z,1007.72
2023-10-22T18:36:27.704Z,1007.75
2023-10-22T18:36:37.040Z,1007.70
2023-10-22T18:36:46.425Z,1007.68
2023-10-22T18:36:55.919Z,1007.73
2023-10-22T18:37:05.313Z,1007.73
2023-10-22T18:37:24.241Z,1007.73
2023-10-22T18:37:33.662Z,1007.69
2023-10-22T18:37:43.058Z,1007.69
2023-10-22T18:37:52.452Z,1007.70
2023-10-22T18:38:01.876Z,1007.71
2023-10-22T18:38:11.267Z,1007.78
2023-10-22T18:38:30.101Z,1007.74
2023-10-22T18:38:39.514Z,1007.74
2023-10-22T18:38:48.925Z,1007.67
2023-10-22T18:38:58.334Z,1007.77
2023-10-22T18:39:09.085Z,1007.71
2023-10-22T18:39:17.141Z,1007.73
2023-10-22T18:39:35.983Z,1007.66
2023-10-22T18:39:45.358Z,1007.69
2023-10-22T18:39:54.732Z,1007.76
2023-10-22T18:40:04.160Z,1007.80
2023-10-22T18:40:13.565Z,1007.76
2023-10-22T18:40:22.969Z,1007.78
2023-10-22T18:40:41.762Z,1007.68
2023-10-22T18:40:51.458Z,1007.74
2023-10-22T18:41:00.592Z,1007.75
2023-10-22T18:41:10.424Z,1007.74
2023-10-22T18:41:19.430Z,1007.79
2023-10-22T18:41:28.875Z,1007.75
2023-10-22T18:41:52.203Z,1007.71
2023-10-22T18:42:11.561Z,1007.73
2023-10-22T18:42:14.591Z,1007.76
2023-10-22T18:42:15.943Z,1007.75
2023-10-22T18:42:25.268Z,1007.77
2023-10-22T18:42:34.666Z,1007.68
2023-10-22T18:42:53.531Z,1007.76
2023-10-22T18:43:02.876Z,1007.76
2023-10-22T18:43:12.284Z,1007.77
2023-10-22T18:43:21.722Z,1007.72
2023-10-22T18:43:31.098Z,1007.74
2023-10-22T18:43:40.601Z,1007.77
2023-10-22T18:43:59.247Z,1007.78
2023-10-22T18:44:08.726Z,1007.74
2023-10-22T18:44:18.134Z,1007.75
2023-10-22T18:44:27.596Z,1007.69
2023-10-22T18:44:37.172Z,1007.76
2023-10-22T18:44:46.362Z,1007.77
2023-10-22T18:45:05.318Z,1007.77
2023-10-22T18:45:14.779Z,1007.73
2023-10-22T18:45:24.193Z,1007.80
2023-10-22T18:45:33.569Z,1007.74
2023-10-22T18:45:43.016Z,1007.76
2023-10-22T18:45:52.364Z,1007.76
2023-10-22T18:46:11.291Z,1007.79
2023-10-22T18:46:20.709Z,1007.71
2023-10-22T18:46:30.057Z,1007.75
2023-10-22T18:46:39.485Z,1007.75
2023-10-22T18:46:48.927Z,1007.79
2023-10-22T18:46:58.401Z,1007.89
2023-10-22T18:47:17.213Z,1007.79
2023-10-22T18:47:26.613Z,1007.84
2023-10-22T18:47:36.001Z,1007.78
2023-10-22T18:47:45.469Z,1007.81
2023-10-22T18:47:54.799Z,1007.77
2023-10-22T18:48:04.267Z,1007.77
2023-10-22T18:48:22.980Z,1007.82
2023-10-22T18:48:32.367Z,1007.79
2023-10-22T18:48:41.786Z,1007.80
2023-10-22T18:48:51.208Z,1007.83
2023-10-22T18:49:00.520Z,1007.81
2023-10-22T18:49:09.917Z,1007.85
2023-10-22T18:49:28.702Z,1007.81
2023-10-22T18:49:38.082Z,1007.84
2023-10-22T18:49:47.598Z,1007.83
2023-10-22T18:49:56.982Z,1007.85
2023-10-22T18:50:06.378Z,1007.89
2023-10-22T18:50:15.792Z,1007.93
2023-10-22T18:50:34.554Z,1007.93
2023-10-22T18:50:43.946Z,1007.88
2023-10-22T18:50:53.338Z,1007.95
2023-10-22T18:51:02.758Z,1007.91
2023-10-22T18:51:12.261Z,1007.96
2023-10-22T18:51:21.729Z,1007.88
2023-10-22T18:51:40.403Z,1007.87
2023-10-22T18:51:49.772Z,1007.92
2023-10-22T18:51:59.144Z,1007.92
2023-10-22T18:52:08.580Z,1007.92
2023-10-22T18:52:17.971Z,1007.93
2023-10-22T18:52:27.400Z,1007.93
2023-10-22T18:52:46.234Z,1007.85
2023-10-22T18:52:55.632Z,1007.90
2023-10-22T18:53:05.012Z,1007.98
2023-10-22T18:53:14.403Z,1007.94
2023-10-22T18:53:23.803Z,1007.98
2023-10-22T18:53:33.205Z,1007.91
2023-10-22T18:53:52.004Z,1007.93
2023-10-22T18:54:01.451Z,1007.91
2023-10-22T18:54:10.820Z,1007.93
2023-10-22T18:54:20.241Z,1007.97
2023-10-22T18:54:29.686Z,1007.98
2023-10-22T18:54:39.438Z,1007.95
2023-10-22T18:54:57.804Z,1008.00
2023-10-22T18:55:07.200Z,1008.08
2023-10-22T18:55:16.677Z,1008.00
2023-10-22T18:55:26.302Z,1007.96
2023-10-22T18:55:35.747Z,1008.05
2023-10-22T18:55:45.154Z,1008.01
2023-10-22T18:56:04.340Z,1007.99
2023-10-22T18:56:13.617Z,1007.99
2023-10-22T18:56:23.058Z,1008.03
2023-10-22T18:56:32.457Z,1008.03
2023-10-22T18:56:41.860Z,1007.99
2023-10-22T18:56:51.266Z,1007.98
2023-10-22T18:57:10.136Z,1008.03
2023-10-22T18:57:19.762Z,1007.98
2023-10-22T18:57:30.535Z,1008.03
2023-10-22T18:57:39.983Z,1007.95
2023-10-22T18:57:49.457Z,1008.02
2023-10-22T18:57:58.847Z,1008.02
2023-10-22T18:58:17.734Z,1008.01
2023-10-22T18:58:27.133Z,1008.06
2023-10-22T18:58:38.027Z,1007.98
2023-10-22T18:58:46.204Z,1008.01
2023-10-22T18:58:55.619Z,1008.05
2023-10-22T18:59:05.027Z,1008.03
2023-10-22T18:59:23.843Z,1008.00
2023-10-22T18:59:33.240Z,1008.00
2023-10-22T18:59:42.629Z,1008.03
2023-10-22T18:59:52.060Z,1008.04
2023-10-22T19:00:01.451Z,1008.02
2023-10-22T19:00:10.943Z,1008.01